首页
METAR-TAF:

METAR-TAF

机场 :

本-古里安国际机场

特拉维夫 / 本·古里安, 以色列

纬度: 32-00N, 经度: 034-54E, 海拔: 40米

当前天气观测

该预报发布于38分钟前的07:50 UTC
风速5节,风向南转西南,在东南西之间变化
温度 31°C
湿度 49%
气压 1007 hPa
能见度10公里或以上
少量云层高于4000英尺

METAR: LLBG 200750Z 20005KT 130V270 9999 FEW040 31/19 Q1007 NOSIG

时间: 11:28 (08:28 UTC)

预报

该预报发布于3小时和20分钟前的05:08 UTC
预报有效从20日的 06点(UTC)到 21日的 06点(UTC)
风速4节,风向多变
能见度10公里或以上
散云层高于2500英尺
成为
从 20日的 07点(UTC)到 20日的 09点(UTC)
风速12节,风向西
少量云层高于3500英尺
成为
从 20日的 16点(UTC)到 20日的 18点(UTC)
风速3节,风向多变
散云层高于2500英尺

TAF: LLBG 200508Z 2006/2106 VRB04KT 9999 SCT025 BECMG 2007/2009 28012KT FEW035 BECMG 2016/2018 VRB03KT SCT025 TX32/2011Z TN24/2103Z

超过4000个机场的气象观测和天气预报(METAR&TAF报告)。

可查询的气象台以黄色和红色小点在地图上表示。

将鼠标移到小点上方,可查看气象台名称。

然后点击查看天气观测和预报。

如需切换地图:点击带黑十字的绿色按钮放大地图;点击带横线的绿色按钮缩小地图;或者点击绿色箭头查看邻近地区的地图。


METAR-TAF: